Time;durP1;ratioP1;P1;durP2;ratioP2;P2;SDS_P1;SDS_P2;PMS_P1;PMS_P2;Temp;Humidity;BMP_temperature;BMP_pressure;BME280_temperature;BME280_humidity;BME280_pressure;Samples;Min_cycle;Max_cycle;Signal;HPM_P1;HPM_P2
2022/05/13 00:02:17;;;;;;;12.68;5.90;;;;;;;20.84;47.56;100937.00;4956988;28;20055;-84
2022/05/13 00:04:43;;;;;;;7.13;4.90;;;;;;;20.84;47.68;100936.16;4957111;28;20031;-84
2022/05/13 00:07:08;;;;;;;9.05;4.78;;;;;;;20.85;47.55;100929.66;4956702;28;20518;-84
2022/05/13 00:12:18;;;;;;;8.30;4.47;;;;;;;20.90;47.29;100921.75;4956764;28;20512;-83
2022/05/13 00:14:45;;;;;;;8.68;4.65;;;;;;;20.88;47.55;100919.22;4955719;28;20031;-83
2022/05/13 00:17:12;;;;;;;11.88;4.82;;;;;;;20.84;47.87;100917.03;4956523;28;20042;-83
2022/05/13 00:19:38;;;;;;;7.05;3.97;;;;;;;20.79;48.03;100914.00;4972229;28;20031;-83
2022/05/13 00:22:04;;;;;;;7.13;4.53;;;;;;;20.78;47.92;100906.81;4956750;28;20030;-83
2022/05/13 00:24:30;;;;;;;9.00;3.88;;;;;;;20.82;48.15;100921.84;4956045;29;20035;-83
2022/05/13 00:26:56;;;;;;;6.93;3.50;;;;;;;20.80;47.92;100910.22;4956722;28;20057;-83
2022/05/13 00:29:22;;;;;;;10.63;4.47;;;;;;;20.79;47.87;100923.06;4956765;28;20030;-83
2022/05/13 00:31:47;;;;;;;10.85;4.13;;;;;;;20.75;47.66;100926.31;4957038;28;20030;-83
2022/05/13 00:34:13;;;;;;;10.60;4.18;;;;;;;20.74;47.99;100927.34;4957002;28;20409;-83
2022/05/13 00:36:39;;;;;;;10.18;3.95;;;;;;;20.71;48.29;100919.50;4956469;28;20110;-84
2022/05/13 00:39:06;;;;;;;16.60;4.15;;;;;;;20.71;48.64;100917.63;4956687;28;20109;-83
2022/05/13 00:41:33;;;;;;;7.15;4.00;;;;;;;20.70;48.56;100926.03;4956982;28;20038;-84
2022/05/13 00:43:59;;;;;;;7.38;3.78;;;;;;;20.59;48.67;100922.69;4956170;28;20497;-84
2022/05/13 00:46:27;;;;;;;10.38;4.78;;;;;;;20.52;48.88;100918.13;4956403;28;20030;-84
2022/05/13 00:48:53;;;;;;;7.20;3.55;;;;;;;20.53;48.89;100926.16;4957141;28;20043;-83
2022/05/13 00:51:22;;;;;;;9.23;4.15;;;;;;;20.48;49.29;100917.66;4956773;28;20517;-83
2022/05/13 00:53:48;;;;;;;11.90;4.88;;;;;;;20.45;49.43;100918.03;4957004;28;20495;-83
2022/05/13 00:56:14;;;;;;;8.88;4.80;;;;;;;20.38;49.58;100922.50;4956418;28;20090;-83
2022/05/13 00:58:42;;;;;;;9.73;4.25;;;;;;;20.40;49.39;100919.56;4956548;28;20039;-83
2022/05/13 01:01:08;;;;;;;10.02;4.57;;;;;;;20.41;49.24;100913.94;4956473;28;20155;-83
2022/05/13 01:03:36;;;;;;;5.57;4.10;;;;;;;20.28;49.17;100905.47;4956080;28;20109;-83
2022/05/13 01:06:05;;;;;;;12.77;4.35;;;;;;;20.32;49.14;100916.91;4956628;28;20461;-84
2022/05/13 01:08:32;;;;;;;6.63;4.03;;;;;;;20.30;48.81;100919.84;4956445;28;20047;-84
2022/05/13 01:11:01;;;;;;;11.00;4.57;;;;;;;20.29;48.83;100909.94;4956282;28;20063;-84
2022/05/13 01:13:30;;;;;;;10.73;4.50;;;;;;;20.25;48.93;100915.88;4956325;28;20453;-83
2022/05/13 01:15:56;;;;;;;8.45;4.32;;;;;;;20.14;48.79;100898.03;4956216;28;20035;-84
2022/05/13 01:18:34;;;;;;;8.00;4.50;;;;;;;20.22;48.37;100903.44;4956142;28;20031;-83
2022/05/13 01:21:00;;;;;;;6.30;3.70;;;;;;;20.20;48.08;100893.72;4956218;28;20369;-84
2022/05/13 01:23:31;;;;;;;12.82;4.85;;;;;;;20.14;47.70;100903.50;4955090;29;20405;-84
2022/05/13 01:26:06;;;;;;;13.50;4.68;;;;;;;20.09;47.67;100897.72;4956766;28;20027;-82
2022/05/13 01:28:36;;;;;;;9.68;4.45;;;;;;;20.10;47.84;100907.63;4959588;28;20038;-82
2022/05/13 01:31:07;;;;;;;11.20;3.95;;;;;;;20.05;48.21;100891.78;4975346;28;20077;-81
2022/05/13 01:33:33;;;;;;;18.33;4.20;;;;;;;20.07;47.82;100897.06;4967444;28;20132;-82
2022/05/13 01:36:01;;;;;;;18.75;4.70;;;;;;;20.08;47.80;100896.03;4956590;29;20113;-83
2022/05/13 01:38:33;;;;;;;13.75;4.82;;;;;;;20.05;47.61;100899.97;4955989;28;20106;-82
2022/05/13 01:40:59;;;;;;;12.68;3.88;;;;;;;20.02;47.82;100899.47;4956866;28;20089;-83
2022/05/13 01:43:25;;;;;;;6.57;3.75;;;;;;;19.98;47.57;100895.41;4957674;28;20039;-82
2022/05/13 01:45:51;;;;;;;8.63;4.30;;;;;;;19.98;47.88;100888.06;4956746;28;20027;-83
2022/05/13 01:48:17;;;;;;;11.30;3.40;;;;;;;19.97;48.06;100888.22;4955857;28;20110;-83
2022/05/13 01:50:43;;;;;;;13.48;4.18;;;;;;;19.91;48.02;100891.66;4955171;28;20035;-83
2022/05/13 01:53:09;;;;;;;18.38;6.10;;;;;;;19.91;48.39;100888.94;4955478;28;20035;-81
2022/05/13 01:55:36;;;;;;;17.80;4.65;;;;;;;19.93;49.06;100895.09;4956050;28;20063;-81
2022/05/13 01:58:02;;;;;;;11.88;4.32;;;;;;;19.87;49.15;100883.00;4955284;28;20031;-82
2022/05/13 02:00:28;;;;;;;7.95;4.30;;;;;;;19.85;49.08;100892.38;4955390;28;20034;-83
2022/05/13 02:05:39;;;;;;;16.17;4.88;;;;;;;19.74;49.12;100884.59;4956064;29;20030;-82
2022/05/13 02:08:07;;;;;;;11.80;4.70;;;;;;;19.72;49.56;100886.66;4957717;28;20031;-82
2022/05/13 02:10:34;;;;;;;12.27;4.70;;;;;;;19.59;49.66;100875.47;4958399;28;20019;-83
2022/05/13 02:13:00;;;;;;;13.40;5.10;;;;;;;19.64;49.62;100889.41;4958363;28;20108;-83
2022/05/13 02:15:25;;;;;;;12.30;4.57;;;;;;;19.68;49.85;100890.78;4956259;28;20065;-81
2022/05/13 02:17:50;;;;;;;7.03;4.15;;;;;;;19.65;50.03;100899.31;4955210;28;20059;-82
2022/05/13 02:20:16;;;;;;;13.48;5.15;;;;;;;19.59;50.33;100892.69;4969891;28;20062;-81
2022/05/13 02:22:41;;;;;;;11.95;5.97;;;;;;;19.52;50.72;100898.00;4954938;28;20023;-82
2022/05/13 02:25:08;;;;;;;16.30;5.65;;;;;;;19.41;51.04;100898.38;4954912;28;20024;-81
2022/05/13 02:27:34;;;;;;;11.35;5.82;;;;;;;19.35;51.01;100906.38;4954840;28;20470;-82
2022/05/13 02:29:59;;;;;;;16.67;6.00;;;;;;;19.24;51.20;100891.22;4955413;28;20059;-83
2022/05/13 02:32:25;;;;;;;12.10;6.22;;;;;;;19.16;51.63;100896.72;4955431;29;20499;-82
2022/05/13 02:34:50;;;;;;;16.90;5.40;;;;;;;19.21;51.24;100896.16;4955229;28;20043;-83
2022/05/13 02:37:16;;;;;;;14.77;5.63;;;;;;;19.12;51.21;100889.03;4957673;28;20031;-83
2022/05/13 02:39:41;;;;;;;15.88;5.80;;;;;;;19.11;51.08;100899.09;4960736;28;20031;-84
2022/05/13 02:42:07;;;;;;;17.33;6.80;;;;;;;19.05;51.05;100897.03;4961318;28;20027;-84
2022/05/13 02:44:32;;;;;;;12.75;4.55;;;;;;;18.98;51.26;100896.91;4961712;28;20038;-83
2022/05/13 02:46:58;;;;;;;8.63;4.72;;;;;;;18.96;51.10;100898.94;4961869;28;20374;-84
2022/05/13 02:49:23;;;;;;;11.25;4.60;;;;;;;18.91;51.35;100903.22;4970062;29;20062;-83
2022/05/13 02:51:49;;;;;;;18.45;5.70;;;;;;;18.79;52.54;100904.59;4969650;28;20027;-84
2022/05/13 02:54:17;;;;;;;25.73;6.43;;;;;;;18.74;53.17;100915.16;4970519;28;20031;-83
2022/05/13 02:56:43;;;;;;;12.98;5.93;;;;;;;18.82;53.17;100915.13;4960787;28;20023;-83
2022/05/13 02:59:08;;;;;;;18.67;5.75;;;;;;;18.83;53.26;100911.41;4961054;28;20386;-83
2022/05/13 03:01:35;;;;;;;12.25;5.45;;;;;;;18.83;53.34;100905.94;4964090;28;20055;-82
2022/05/13 03:04:00;;;;;;;19.13;6.30;;;;;;;18.81;53.46;100905.25;4961515;28;20031;-82
2022/05/13 03:06:26;;;;;;;20.60;6.13;;;;;;;18.75;53.18;100912.25;4975846;28;20030;-83
2022/05/13 03:08:54;;;;;;;19.15;5.45;;;;;;;18.75;52.89;100912.25;4958927;28;20027;-84
2022/05/13 03:11:23;;;;;;;20.00;6.70;;;;;;;18.77;52.87;100917.53;4971183;28;20082;-84
2022/05/13 03:13:50;;;;;;;27.45;6.68;;;;;;;18.71;53.10;100920.94;4959884;28;20034;-82
2022/05/13 03:16:19;;;;;;;21.02;7.95;;;;;;;18.64;54.16;100922.63;4957688;28;20023;-82
2022/05/13 03:18:52;;;;;;;24.40;8.85;;;;;;;18.60;54.20;100932.16;4958157;28;20031;-84
2022/05/13 03:21:18;;;;;;;23.17;9.30;;;;;;;18.58;55.02;100936.94;4956652;29;20409;-83
2022/05/13 03:23:43;;;;;;;31.50;10.27;;;;;;;18.42;55.39;100935.88;4957826;28;20485;-82
2022/05/13 03:26:11;;;;;;;36.70;14.25;;;;;;;18.30;55.93;100948.09;4958220;28;20034;-82
2022/05/13 03:28:37;;;;;;;43.88;16.60;;;;;;;18.12;56.68;100954.69;4957896;28;20109;-82
2022/05/13 03:31:02;;;;;;;33.33;14.35;;;;;;;17.99;56.84;100949.69;4958044;28;20106;-82
2022/05/13 03:33:28;;;;;;;50.25;17.10;;;;;;;18.08;56.39;100947.84;4956937;29;20059;-82
2022/05/13 03:35:53;;;;;;;22.02;11.88;;;;;;;18.13;56.99;100945.50;4957867;28;20110;-82
2022/05/13 03:38:19;;;;;;;32.35;11.98;;;;;;;18.18;56.96;100954.88;4957966;28;20023;-84
2022/05/13 03:40:46;;;;;;;42.22;10.82;;;;;;;18.13;56.89;100945.50;4958099;28;20514;-82
2022/05/13 03:43:12;;;;;;;41.20;9.77;;;;;;;18.16;56.68;100948.75;4972071;28;20081;-82
2022/05/13 03:45:38;;;;;;;32.15;10.07;;;;;;;18.14;56.71;100953.50;4958142;28;20398;-83
2022/05/13 03:48:05;;;;;;;97.68;16.10;;;;;;;18.16;56.75;100953.34;4957094;28;20031;-84
2022/05/13 03:50:32;;;;;;;26.98;9.55;;;;;;;18.20;56.64;100957.41;4958191;28;20054;-85
2022/05/13 03:52:59;;;;;;;33.08;10.57;;;;;;;18.13;57.20;100949.09;4958561;28;20501;-85
2022/05/13 03:55:25;;;;;;;45.90;14.68;;;;;;;18.10;57.70;100960.31;4957570;28;20027;-85
2022/05/13 03:57:50;;;;;;;39.22;12.25;;;;;;;18.20;57.72;100960.13;4958728;28;20106;-85
2022/05/13 04:00:16;;;;;;;43.17;13.88;;;;;;;18.25;57.92;100955.94;4957652;28;20023;-85
2022/05/13 04:02:42;;;;;;;35.78;13.40;;;;;;;18.33;58.02;100958.66;4958510;28;20425;-84
2022/05/13 04:10:36;;;;;;;52.83;17.83;;;;;;;18.20;57.92;100974.59;4958267;29;20105;-83
2022/05/13 04:16:06;;;;;;;51.90;16.88;;;;;;;18.22;57.98;100988.06;4957232;29;20405;-80
2022/05/13 04:18:36;;;;;;;56.38;19.88;;;;;;;18.27;57.68;100989.28;4956418;28;20024;-79
2022/05/13 04:21:04;;;;;;;53.55;19.13;;;;;;;18.35;57.70;100989.28;4956714;28;20031;-79
2022/05/13 04:23:34;;;;;;;39.60;18.33;;;;;;;18.46;57.87;100983.56;4956738;28;20019;-77
2022/05/13 04:26:14;;;;;;;;;;;;;;;;;;;;;
2022/05/13 04:28:42;;;;;;;62.13;19.58;;;;;;;18.59;58.24;100979.53;4956511;29;20058;-78
2022/05/13 04:31:08;;;;;;;53.28;19.38;;;;;;;18.66;58.39;100977.81;4955713;28;20062;-78
2022/05/13 04:33:34;;;;;;;61.72;18.98;;;;;;;18.70;57.75;100976.47;4954856;28;20047;-76
2022/05/13 04:35:59;;;;;;;81.80;20.98;;;;;;;18.78;58.19;100980.03;4955385;28;20038;-80
2022/05/13 04:38:26;;;;;;;55.58;20.95;;;;;;;18.80;58.19;100979.88;4970080;28;20050;-78
2022/05/13 04:40:52;;;;;;;76.20;20.45;;;;;;;18.88;58.39;100974.41;4969647;28;20023;-77
2022/05/13 04:43:17;;;;;;;65.50;19.88;;;;;;;18.98;58.23;100989.59;4955354;28;20556;-76
2022/05/13 04:45:44;;;;;;;54.33;20.52;;;;;;;19.01;58.13;100993.84;4955687;28;20485;-78
2022/05/13 04:48:16;;;;;;;78.90;23.23;;;;;;;19.04;58.44;100988.06;4956078;29;20102;-77
2022/05/13 04:50:57;;;;;;;53.75;18.75;;;;;;;19.06;58.92;100996.91;4965425;28;20047;-78
2022/05/13 04:53:32;;;;;;;37.95;14.75;;;;;;;19.16;58.25;100989.41;4956117;28;20481;-77
2022/05/13 04:55:59;;;;;;;64.90;17.20;;;;;;;19.18;57.13;100984.63;4954946;28;20019;-78
2022/05/13 04:58:25;;;;;;;40.88;15.98;;;;;;;19.27;56.22;100991.78;4954440;28;20027;-78
2022/05/13 05:00:54;;;;;;;163.10;24.80;;;;;;;19.39;55.95;101001.34;4954439;28;20055;-78
2022/05/13 05:03:21;;;;;;;132.48;23.45;;;;;;;19.54;56.60;100998.75;4955456;28;20094;-77
2022/05/13 05:05:47;;;;;;;141.65;23.77;;;;;;;19.62;56.38;100995.19;4955099;28;20073;-77
2022/05/13 05:08:14;;;;;;;98.68;24.45;;;;;;;19.75;55.89;101007.25;4955558;28;20059;-78
2022/05/13 05:10:41;;;;;;;134.52;26.75;;;;;;;19.83;55.84;101004.50;4955571;28;20145;-78
2022/05/13 05:13:08;;;;;;;84.82;23.48;;;;;;;19.95;55.79;101010.44;4955905;28;20055;-78
2022/05/13 05:15:35;;;;;;;64.68;19.17;;;;;;;20.05;55.54;101013.81;4955352;28;20027;-78
2022/05/13 05:18:00;;;;;;;66.43;20.73;;;;;;;20.15;55.35;101008.97;4954921;28;20035;-76
2022/05/13 05:20:27;;;;;;;73.10;20.48;;;;;;;20.23;55.42;101011.69;4955219;28;20038;-78
2022/05/13 05:22:52;;;;;;;38.70;16.73;;;;;;;20.36;55.16;101012.00;4955326;28;20031;-76
2022/05/13 05:25:20;;;;;;;54.47;14.55;;;;;;;20.46;54.83;101018.06;4955238;28;20027;-77
2022/05/13 05:27:46;;;;;;;36.00;14.93;;;;;;;20.48;53.94;101001.50;4954860;28;20031;-77
2022/05/13 05:30:12;;;;;;;35.10;15.50;;;;;;;20.64;53.83;101023.25;4955777;28;20027;-77
2022/05/13 05:32:39;;;;;;;42.00;14.95;;;;;;;20.71;52.58;101018.78;4955203;28;20166;-77
2022/05/13 05:35:09;;;;;;;34.42;12.35;;;;;;;20.84;51.59;101031.84;4954540;28;20552;-77
2022/05/13 05:37:34;;;;;;;33.30;10.55;;;;;;;20.75;50.69;101022.88;4954840;28;20050;-77
2022/05/13 05:40:00;;;;;;;17.88;8.68;;;;;;;20.81;49.99;101024.03;4955070;28;20548;-76
2022/05/13 05:42:26;;;;;;;23.33;10.80;;;;;;;20.98;50.21;101023.72;4955217;28;20089;-77
2022/05/13 05:44:51;;;;;;;20.52;7.47;;;;;;;21.06;49.77;101014.59;4954583;28;20035;-77
2022/05/13 05:47:21;;;;;;;16.25;7.80;;;;;;;21.16;49.62;101027.00;4954404;28;20458;-77
2022/05/13 05:49:47;;;;;;;20.17;8.32;;;;;;;21.26;48.84;101017.69;4948126;28;20158;-77
2022/05/13 05:52:12;;;;;;;34.15;11.07;;;;;;;21.32;48.94;101019.69;4936736;29;20477;-77
2022/05/13 05:57:23;;;;;;;22.55;7.25;;;;;;;21.49;47.61;101016.66;4935410;29;20112;-77
2022/05/13 05:59:48;;;;;;;11.00;7.50;;;;;;;21.57;46.83;101019.28;4935223;29;20360;-77
2022/05/13 06:02:15;;;;;;;21.27;7.38;;;;;;;21.67;46.91;101013.56;4951080;28;20051;-77
2022/05/13 06:04:40;;;;;;;33.80;9.30;;;;;;;21.78;46.84;101020.44;4934729;29;20035;-77
2022/05/13 06:07:09;;;;;;;22.08;7.25;;;;;;;21.81;46.41;101020.91;4935381;29;20039;-78
2022/05/13 06:09:34;;;;;;;16.83;6.88;;;;;;;21.92;45.69;101020.50;4936296;29;20031;-77
2022/05/13 06:12:01;;;;;;;35.33;8.30;;;;;;;22.01;46.10;101021.25;4935185;29;20107;-77
2022/05/13 06:14:27;;;;;;;18.45;6.88;;;;;;;22.10;45.58;101011.88;4935212;29;20086;-77
2022/05/13 06:16:53;;;;;;;33.92;11.48;;;;;;;22.17;45.44;100999.97;4940198;29;20059;-78
2022/05/13 06:19:18;;;;;;;20.55;8.52;;;;;;;22.27;45.66;101004.28;4947304;29;20553;-77
2022/05/13 06:21:44;;;;;;;24.50;7.50;;;;;;;22.33;45.39;101004.38;4954369;28;20050;-77
2022/05/13 06:24:10;;;;;;;16.92;6.50;;;;;;;22.40;45.39;100997.09;4954607;28;20252;-78
2022/05/13 06:26:36;;;;;;;14.07;6.78;;;;;;;22.50;44.91;101003.13;4969276;28;20066;-76
2022/05/13 06:29:04;;;;;;;16.83;7.40;;;;;;;22.59;44.78;101001.97;4952638;28;20030;-76
2022/05/13 06:31:29;;;;;;;19.80;7.15;;;;;;;22.72;44.90;101002.13;4942447;29;20039;-77
2022/05/13 06:33:55;;;;;;;23.00;6.97;;;;;;;22.76;44.44;101002.59;4935048;29;20394;-76
2022/05/13 06:36:22;;;;;;;22.33;7.93;;;;;;;22.85;44.53;101003.31;4934912;29;20028;-76
2022/05/13 06:38:48;;;;;;;23.20;8.00;;;;;;;22.92;44.25;100998.75;4950009;29;20034;-77
2022/05/13 06:41:17;;;;;;;11.63;6.65;;;;;;;23.06;44.29;101003.31;4953566;29;20098;-76
2022/05/13 06:43:42;;;;;;;20.92;7.22;;;;;;;23.11;44.00;100998.94;4953006;29;20031;-78
2022/05/13 06:46:08;;;;;;;22.77;7.20;;;;;;;23.25;44.01;101002.66;4953592;29;20019;-77
2022/05/13 06:48:33;;;;;;;20.25;8.27;;;;;;;23.27;44.04;101006.06;4953701;29;20743;-79
2022/05/13 06:51:00;;;;;;;13.10;6.80;;;;;;;23.33;43.86;101007.16;4953557;28;20537;-76
2022/05/13 06:53:26;;;;;;;17.20;6.95;;;;;;;23.42;43.88;101014.25;4953804;28;20055;-76
2022/05/13 06:55:51;;;;;;;18.13;6.57;;;;;;;23.51;43.57;101002.06;4951833;28;20062;-76
2022/05/13 06:58:17;;;;;;;11.32;6.43;;;;;;;23.62;43.38;101009.72;4953087;29;20434;-77
2022/05/13 07:00:44;;;;;;;14.93;6.43;;;;;;;23.68;43.40;101012.53;4953707;28;20031;-77
2022/05/13 07:03:17;;;;;;;20.27;6.32;;;;;;;23.78;43.09;101010.28;4952368;29;20062;-77
2022/05/13 07:05:43;;;;;;;27.10;6.88;;;;;;;23.85;43.02;101008.41;4953720;28;20035;-77
2022/05/13 07:08:10;;;;;;;16.85;8.10;;;;;;;23.91;43.20;101009.53;4953232;28;20442;-77
2022/05/13 07:10:39;;;;;;;17.95;6.93;;;;;;;23.98;43.17;100999.41;4953888;28;20032;-77
2022/05/13 07:13:06;;;;;;;20.85;8.27;;;;;;;24.08;42.71;101004.53;4953470;28;20047;-76
2022/05/13 07:15:32;;;;;;;36.70;15.95;;;;;;;24.11;42.66;100998.66;4953285;28;20398;-76
2022/05/13 07:17:57;;;;;;;16.90;7.45;;;;;;;24.19;42.84;100992.97;4953568;29;20031;-77
2022/05/13 07:20:26;;;;;;;22.38;7.78;;;;;;;24.34;42.61;100996.47;4953528;28;20061;-76
2022/05/13 07:22:52;;;;;;;16.63;6.43;;;;;;;24.43;42.52;100992.47;4954488;28;20035;-76
2022/05/13 07:25:18;;;;;;;22.75;7.43;;;;;;;24.50;42.52;100990.56;4956815;29;20481;-77
2022/05/13 07:27:43;;;;;;;27.63;9.45;;;;;;;24.47;44.86;100988.22;4956502;28;20030;-77
2022/05/13 07:30:10;;;;;;;24.10;11.10;;;;;;;24.52;45.05;100982.13;4956626;28;20058;-76
2022/05/13 07:32:36;;;;;;;21.75;11.60;;;;;;;24.61;45.27;100997.38;4956781;29;20046;-77
2022/05/13 07:35:02;;;;;;;34.70;9.75;;;;;;;24.72;45.20;100997.63;4956503;29;20027;-76
2022/05/13 07:37:27;;;;;;;20.00;9.30;;;;;;;24.74;45.30;100991.91;4956470;28;20031;-76
2022/05/13 07:42:37;;;;;;;25.13;8.13;;;;;;;24.83;44.26;100994.28;4956575;29;20083;-76
2022/05/13 07:45:03;;;;;;;22.20;8.45;;;;;;;24.88;44.15;100989.03;4956713;28;20035;-77
2022/05/13 07:47:28;;;;;;;26.73;10.60;;;;;;;24.97;43.63;100986.06;4956479;28;20023;-76
2022/05/13 07:49:54;;;;;;;12.88;7.40;;;;;;;25.10;42.43;100992.44;4956198;29;20496;-76
2022/05/13 07:52:19;;;;;;;23.38;6.93;;;;;;;25.16;42.75;100979.72;4956742;28;20083;-76
2022/05/13 07:54:45;;;;;;;16.63;8.68;;;;;;;25.33;42.92;100983.75;4956222;28;20038;-76
2022/05/13 07:57:10;;;;;;;22.02;7.65;;;;;;;25.40;42.20;100979.94;4956364;28;20027;-76
2022/05/13 08:00:24;;;;;;;31.10;9.38;;;;;;;25.40;42.69;100979.09;4956619;28;20457;-76
2022/05/13 08:02:22;;;;;;;17.20;7.63;;;;;;;25.46;41.26;100981.00;4956094;29;20153;-76
2022/05/13 08:04:47;;;;;;;18.27;6.95;;;;;;;25.61;41.50;100978.88;4956679;28;20486;-77
2022/05/13 08:07:13;;;;;;;23.73;7.35;;;;;;;25.56;41.78;100970.44;4956469;28;20102;-77
2022/05/13 08:09:38;;;;;;;15.65;7.10;;;;;;;25.53;42.72;100975.50;4958304;28;20027;-77
2022/05/13 08:12:04;;;;;;;24.17;7.60;;;;;;;25.55;42.47;100968.72;4960496;28;20027;-76
2022/05/13 08:14:29;;;;;;;20.33;6.00;;;;;;;25.45;42.04;100968.28;4955862;28;20041;-76
2022/05/13 08:16:55;;;;;;;19.70;6.80;;;;;;;25.38;42.17;100981.22;4956252;28;20059;-77
2022/05/13 08:19:20;;;;;;;13.90;5.95;;;;;;;25.25;42.07;100983.97;4955741;28;20023;-77
2022/05/13 08:21:46;;;;;;;17.42;6.00;;;;;;;25.16;42.54;100971.47;4955955;28;20053;-77
2022/05/13 08:24:11;;;;;;;13.98;6.80;;;;;;;25.14;43.30;100970.81;4956088;28;20047;-77
2022/05/13 08:26:37;;;;;;;11.35;6.18;;;;;;;25.20;43.28;100980.97;4955769;28;20393;-77
2022/05/13 08:29:03;;;;;;;27.17;7.25;;;;;;;25.21;42.70;100977.19;4955444;28;20397;-76
2022/05/13 08:31:29;;;;;;;21.92;6.40;;;;;;;25.19;42.93;100984.81;4955611;28;20106;-78
2022/05/13 08:33:55;;;;;;;17.50;6.63;;;;;;;25.32;43.01;100987.53;4955362;28;20597;-76
2022/05/13 08:36:20;;;;;;;30.73;7.20;;;;;;;25.41;43.28;100986.31;4955063;28;20523;-76
2022/05/13 08:38:47;;;;;;;13.70;7.35;;;;;;;25.32;43.29;100971.03;4955072;28;20127;-78
2022/05/13 08:41:41;;;;;;;15.75;6.82;;;;;;;25.41;43.42;100970.59;4955467;28;20055;-75
2022/05/13 08:44:08;;;;;;;25.05;6.47;;;;;;;25.54;43.29;100972.53;4955471;28;20557;-76
2022/05/13 08:46:36;;;;;;;18.70;7.13;;;;;;;25.67;43.07;100975.28;4955298;28;20023;-76
2022/05/13 08:49:41;;;;;;;16.65;7.43;;;;;;;25.77;43.16;100972.94;4955123;28;20041;-77
2022/05/13 08:53:06;;;;;;;15.95;5.65;;;;;;;25.88;42.75;100980.53;4955057;29;20035;-76
2022/05/13 08:54:53;;;;;;;15.52;6.00;;;;;;;26.08;42.67;100968.59;4955389;29;20035;-77
2022/05/13 08:57:19;;;;;;;18.83;6.05;;;;;;;26.15;42.57;100970.28;4955513;28;20027;-77
2022/05/13 08:59:54;;;;;;;16.02;5.90;;;;;;;26.30;42.23;100957.06;4955242;28;20039;-77
2022/05/13 09:02:30;;;;;;;21.58;7.47;;;;;;;26.32;41.64;100965.13;4955253;28;20528;-76
2022/05/13 09:05:20;;;;;;;15.68;6.78;;;;;;;26.40;41.55;100962.09;4955078;28;20031;-76
2022/05/13 09:07:51;;;;;;;22.17;6.55;;;;;;;26.42;41.45;100960.00;4954598;29;20580;-76
2022/05/13 09:10:17;;;;;;;13.23;6.05;;;;;;;26.54;41.63;100962.91;4954948;28;20030;-75
2022/05/13 09:13:10;;;;;;;25.02;7.32;;;;;;;26.48;41.29;100957.16;4954743;28;20087;-78
2022/05/13 09:15:52;;;;;;;25.38;7.47;;;;;;;26.47;40.99;100962.94;4954583;28;20023;-77
2022/05/13 09:18:31;;;;;;;17.30;6.18;;;;;;;26.35;41.32;100956.41;4961208;28;20027;-78
2022/05/13 09:20:59;;;;;;;19.08;6.80;;;;;;;26.29;41.59;100960.06;4960813;28;20054;-76
2022/05/13 09:23:26;;;;;;;14.63;5.93;;;;;;;26.34;41.84;100951.94;4958656;28;20066;-77
2022/05/13 09:26:05;;;;;;;19.80;6.45;;;;;;;26.33;41.73;100953.00;4957059;28;20051;-78
2022/05/13 09:28:34;;;;;;;20.52;7.00;;;;;;;26.45;42.29;100956.78;4954700;28;20035;-77
2022/05/13 09:31:17;;;;;;;11.45;6.13;;;;;;;26.50;41.75;100955.06;4954568;28;20034;-76
2022/05/13 09:33:46;;;;;;;24.40;6.57;;;;;;;26.62;40.91;100960.72;4954326;28;20109;-76
2022/05/13 09:36:26;;;;;;;11.82;5.22;;;;;;;26.60;39.87;100949.06;4954060;28;20143;-76
2022/05/13 09:38:53;;;;;;;21.38;4.45;;;;;;;26.46;38.55;100955.72;4953966;28;20153;-76
2022/05/13 09:41:35;;;;;;;23.60;5.38;;;;;;;26.46;38.16;100951.03;4954496;28;20074;-77
2022/05/13 09:44:10;;;;;;;14.27;5.13;;;;;;;26.33;37.96;100937.31;4954222;28;20084;-76
2022/05/13 09:46:47;;;;;;;28.92;6.10;;;;;;;26.40;37.70;100940.03;4954017;28;20046;-77
2022/05/13 09:49:28;;;;;;;14.70;5.47;;;;;;;26.38;38.45;100940.28;4954615;28;20039;-76
2022/05/13 09:52:08;;;;;;;25.48;6.60;;;;;;;26.40;38.05;100934.53;4954323;28;20042;-76
2022/05/13 09:54:36;;;;;;;17.77;5.20;;;;;;;26.54;38.60;100929.78;4952877;29;20042;-76
2022/05/13 09:57:30;;;;;;;31.55;5.53;;;;;;;26.59;38.06;100922.53;4953837;28;20095;-77
2022/05/13 10:00:05;;;;;;;15.50;6.03;;;;;;;26.62;38.26;100930.38;4953972;28;20031;-76
2022/05/13 10:02:47;;;;;;;15.68;5.80;;;;;;;26.70;38.03;100924.56;4953962;28;20059;-76
2022/05/13 10:05:19;;;;;;;;;;;;;;;26.79;38.56;100914.09;4954537;28;20030;-76
2022/05/13 10:07:51;;;;;;;26.58;5.90;;;;;;;26.80;37.48;100913.91;4954195;29;19914;-76
2022/05/13 10:16:07;;;;;;;19.45;5.35;;;;;;;27.00;37.95;100909.06;4953892;29;20115;-76
2022/05/13 10:18:37;;;;;;;19.42;5.90;;;;;;;26.96;37.57;100905.09;4968344;28;20049;-77
2022/05/13 10:21:12;;;;;;;19.50;5.43;;;;;;;27.17;38.23;100912.13;4952098;28;20043;-77
2022/05/13 10:23:53;;;;;;;18.23;5.25;;;;;;;27.17;36.80;100905.75;4953613;28;20029;-77
2022/05/13 10:26:22;;;;;;;8.75;4.85;;;;;;;27.04;37.59;100901.19;4953759;28;20019;-76
2022/05/13 10:29:13;;;;;;;40.25;7.15;;;;;;;27.00;38.83;100914.59;4953935;28;20035;-77
2022/05/13 10:31:43;;;;;;;17.05;4.35;;;;;;;27.11;38.47;100901.13;4953609;28;20077;-77
2022/05/13 10:34:22;;;;;;;19.48;5.18;;;;;;;27.11;38.50;100895.63;4953829;28;20031;-76
2022/05/13 10:37:01;;;;;;;14.77;6.07;;;;;;;27.00;39.16;100891.69;4953715;28;20033;-76
2022/05/13 10:39:43;;;;;;;19.80;5.22;;;;;;;27.00;38.83;100891.69;4953891;28;20029;-76
2022/05/13 10:42:22;;;;;;;22.95;5.72;;;;;;;27.04;39.47;100891.00;4953403;28;20028;-77
2022/05/13 10:44:58;;;;;;;9.55;5.43;;;;;;;27.09;38.18;100892.25;4953518;28;20078;-76
2022/05/13 10:47:50;;;;;;;13.13;5.13;;;;;;;26.98;38.30;100883.63;4954192;28;20023;-76
2022/05/13 10:50:25;;;;;;;11.25;5.18;;;;;;;26.95;38.26;100884.06;4952730;28;20394;-76
2022/05/13 10:52:57;;;;;;;26.30;5.43;;;;;;;26.73;38.76;100877.19;4954356;28;20050;-76
2022/05/13 10:55:29;;;;;;;23.95;6.65;;;;;;;26.84;39.82;100876.53;4953923;28;20416;-76
2022/05/13 10:58:33;;;;;;;28.13;5.90;;;;;;;26.77;39.94;100870.19;4954890;28;20082;-77
2022/05/13 11:01:33;;;;;;;15.45;6.88;;;;;;;26.80;40.87;100871.66;4956680;29;20043;-76
2022/05/13 11:03:59;;;;;;;15.73;5.03;;;;;;;26.99;39.46;100863.22;4956579;28;20042;-75
2022/05/13 11:06:46;;;;;;;20.83;5.45;;;;;;;27.10;38.86;100858.00;4956535;28;20131;-75
2022/05/13 11:09:21;;;;;;;24.55;5.72;;;;;;;27.06;39.05;100865.09;4956152;28;20472;-76
2022/05/13 11:11:46;;;;;;;20.45;5.53;;;;;;;27.14;39.09;100853.72;4956569;28;20493;-76
2022/05/13 11:14:16;;;;;;;28.95;5.90;;;;;;;27.18;37.42;100854.97;4956089;28;20023;-76
2022/05/13 11:17:16;;;;;;;21.77;5.43;;;;;;;27.08;37.40;100849.13;4956134;28;20035;-76
2022/05/13 11:20:10;;;;;;;18.90;5.03;;;;;;;27.16;38.53;100852.44;4955261;28;20418;-76
2022/05/13 11:22:46;;;;;;;12.05;5.00;;;;;;;27.20;39.47;100847.31;4927507;28;20058;-77
2022/05/13 11:25:54;;;;;;;11.30;4.78;;;;;;;27.22;37.92;100847.91;4959246;28;20031;-76
2022/05/13 11:28:57;;;;;;;19.88;6.30;;;;;;;27.06;38.96;100845.75;4956505;28;20027;-76
2022/05/13 11:31:33;;;;;;;20.77;5.57;;;;;;;26.94;39.29;100846.47;4955717;29;20027;-76
2022/05/13 11:34:35;;;;;;;18.15;5.80;;;;;;;26.75;39.37;100833.69;4955908;28;20035;-76
2022/05/13 11:37:04;;;;;;;27.47;5.97;;;;;;;26.80;40.09;100835.78;4955855;29;20210;-77
2022/05/13 11:39:59;;;;;;;28.20;6.28;;;;;;;26.57;40.61;100828.09;4957030;28;20493;-76
2022/05/13 11:45:55;;;;;;;12.38;5.07;;;;;;;26.55;41.00;100827.47;4955908;29;20083;-77
2022/05/13 11:48:52;;;;;;;28.20;5.32;;;;;;;26.53;39.46;100821.34;4955640;29;20047;-77
2022/05/13 11:51:20;;;;;;;12.98;5.28;;;;;;;26.50;40.15;100824.53;4955254;28;20102;-77
2022/05/13 11:53:50;;;;;;;13.57;5.47;;;;;;;26.52;40.65;100819.63;4955643;28;20046;-77
2022/05/13 11:56:18;;;;;;;17.80;6.45;;;;;;;26.61;40.77;100812.78;4955520;28;20039;-77
2022/05/13 11:58:50;;;;;;;9.30;5.20;;;;;;;26.59;41.11;100812.16;4955740;28;20042;-77